sensor_id;sensor_type;location;lat;lon;timestamp;temperature;humidity
24408;DHT22;12542;50.924;4.516;2022-10-16T00:00:44;14.50;99.90
24408;DHT22;12542;50.924;4.516;2022-10-16T00:03:11;14.50;99.90
24408;DHT22;12542;50.924;4.516;2022-10-16T00:05:39;14.60;99.90
24408;DHT22;12542;50.924;4.516;2022-10-16T00:08:06;14.60;99.90
24408;DHT22;12542;50.924;4.516;2022-10-16T00:10:32;14.60;99.90
24408;DHT22;12542;50.924;4.516;2022-10-16T00:12:58;14.60;99.90
24408;DHT22;12542;50.924;4.516;2022-10-16T00:15:24;14.60;99.90
24408;DHT22;12542;50.924;4.516;2022-10-16T00:17:50;14.50;99.90
24408;DHT22;12542;50.924;4.516;2022-10-16T00:20:16;14.40;99.90
24408;DHT22;12542;50.924;4.516;2022-10-16T00:22:41;14.50;99.90
24408;DHT22;12542;50.924;4.516;2022-10-16T00:25:07;14.50;99.90
24408;DHT22;12542;50.924;4.516;2022-10-16T00:27:33;14.40;99.90
24408;DHT22;12542;50.924;4.516;2022-10-16T00:29:59;14.40;99.90
24408;DHT22;12542;50.924;4.516;2022-10-16T00:32:25;14.50;99.90
24408;DHT22;12542;50.924;4.516;2022-10-16T00:34:51;14.50;99.90
24408;DHT22;12542;50.924;4.516;2022-10-16T00:37:20;14.50;99.90
24408;DHT22;12542;50.924;4.516;2022-10-16T00:39:45;14.60;99.90
24408;DHT22;12542;50.924;4.516;2022-10-16T00:42:16;14.60;99.90
24408;DHT22;12542;50.924;4.516;2022-10-16T00:47:34;14.50;99.90
24408;DHT22;12542;50.924;4.516;2022-10-16T00:50:11;14.60;99.90
24408;DHT22;12542;50.924;4.516;2022-10-16T00:52:42;14.50;99.90
24408;DHT22;12542;50.924;4.516;2022-10-16T00:55:09;14.50;99.90
24408;DHT22;12542;50.924;4.516;2022-10-16T00:57:36;14.50;99.90
24408;DHT22;12542;50.924;4.516;2022-10-16T01:00:06;14.50;99.90
24408;DHT22;12542;50.924;4.516;2022-10-16T01:02:32;14.50;99.90
24408;DHT22;12542;50.924;4.516;2022-10-16T01:04:58;14.50;99.90
24408;DHT22;12542;50.924;4.516;2022-10-16T01:10:30;14.40;99.90
24408;DHT22;12542;50.924;4.516;2022-10-16T01:13:10;14.30;99.90
24408;DHT22;12542;50.924;4.516;2022-10-16T01:15:56;14.30;99.90
24408;DHT22;12542;50.924;4.516;2022-10-16T01:18:42;14.20;99.90
24408;DHT22;12542;50.924;4.516;2022-10-16T01:24:33;14.40;99.90
24408;DHT22;12542;50.924;4.516;2022-10-16T01:29:54;14.50;99.90
24408;DHT22;12542;50.924;4.516;2022-10-16T01:32:46;14.40;99.90
24408;DHT22;12542;50.924;4.516;2022-10-16T01:35:30;14.30;99.90
24408;DHT22;12542;50.924;4.516;2022-10-16T01:38:30;14.40;99.90
24408;DHT22;12542;50.924;4.516;2022-10-16T01:41:01;14.30;99.90
24408;DHT22;12542;50.924;4.516;2022-10-16T01:43:37;14.30;99.90
24408;DHT22;12542;50.924;4.516;2022-10-16T01:46:05;14.40;99.90
24408;DHT22;12542;50.924;4.516;2022-10-16T01:48:32;14.40;99.90
24408;DHT22;12542;50.924;4.516;2022-10-16T01:51:26;14.40;99.90
24408;DHT22;12542;50.924;4.516;2022-10-16T01:53:54;14.30;99.90
24408;DHT22;12542;50.924;4.516;2022-10-16T01:56:21;14.40;99.90
24408;DHT22;12542;50.924;4.516;2022-10-16T02:01:38;14.40;99.90
24408;DHT22;12542;50.924;4.516;2022-10-16T02:04:20;14.40;99.90
24408;DHT22;12542;50.924;4.516;2022-10-16T02:06:48;14.30;99.90
24408;DHT22;12542;50.924;4.516;2022-10-16T02:09:14;14.20;99.90
24408;DHT22;12542;50.924;4.516;2022-10-16T02:11:43;14.10;99.90
24408;DHT22;12542;50.924;4.516;2022-10-16T02:14:09;14.10;99.90
24408;DHT22;12542;50.924;4.516;2022-10-16T02:16:41;14.20;99.90
24408;DHT22;12542;50.924;4.516;2022-10-16T02:19:08;14.10;99.90
24408;DHT22;12542;50.924;4.516;2022-10-16T02:21:54;14.20;99.90
24408;DHT22;12542;50.924;4.516;2022-10-16T02:24:35;14.20;99.90
24408;DHT22;12542;50.924;4.516;2022-10-16T02:30:24;14.30;99.90
24408;DHT22;12542;50.924;4.516;2022-10-16T02:32:52;14.20;99.90
24408;DHT22;12542;50.924;4.516;2022-10-16T02:35:20;14.20;99.90
24408;DHT22;12542;50.924;4.516;2022-10-16T02:37:49;14.20;99.90
24408;DHT22;12542;50.924;4.516;2022-10-16T02:40:17;14.30;99.90
24408;DHT22;12542;50.924;4.516;2022-10-16T02:42:43;14.20;99.90
24408;DHT22;12542;50.924;4.516;2022-10-16T02:45:10;14.20;99.90
24408;DHT22;12542;50.924;4.516;2022-10-16T02:47:37;14.20;99.90
24408;DHT22;12542;50.924;4.516;2022-10-16T02:50:04;14.10;99.90
24408;DHT22;12542;50.924;4.516;2022-10-16T02:52:30;14.20;99.90
24408;DHT22;12542;50.924;4.516;2022-10-16T02:54:56;14.10;99.90
24408;DHT22;12542;50.924;4.516;2022-10-16T02:57:22;14.20;99.90
24408;DHT22;12542;50.924;4.516;2022-10-16T02:59:48;14.20;99.90
24408;DHT22;12542;50.924;4.516;2022-10-16T03:02:14;14.30;99.90
24408;DHT22;12542;50.924;4.516;2022-10-16T03:04:41;14.20;99.90
24408;DHT22;12542;50.924;4.516;2022-10-16T03:07:06;14.20;99.90
24408;DHT22;12542;50.924;4.516;2022-10-16T03:09:33;14.10;99.90
24408;DHT22;12542;50.924;4.516;2022-10-16T03:11:59;14.20;99.90
24408;DHT22;12542;50.924;4.516;2022-10-16T03:14:25;14.10;99.90
24408;DHT22;12542;50.924;4.516;2022-10-16T03:16:50;14.10;99.90
24408;DHT22;12542;50.924;4.516;2022-10-16T03:19:17;14.10;99.90
24408;DHT22;12542;50.924;4.516;2022-10-16T03:21:44;14.10;99.90
24408;DHT22;12542;50.924;4.516;2022-10-16T03:24:10;14.10;99.90
24408;DHT22;12542;50.924;4.516;2022-10-16T03:26:36;14.10;99.90
24408;DHT22;12542;50.924;4.516;2022-10-16T03:29:02;14.10;99.90
24408;DHT22;12542;50.924;4.516;2022-10-16T03:31:29;14.20;99.90
24408;DHT22;12542;50.924;4.516;2022-10-16T03:33:55;14.30;99.90
24408;DHT22;12542;50.924;4.516;2022-10-16T03:36:20;14.20;99.90
24408;DHT22;12542;50.924;4.516;2022-10-16T03:38:46;14.30;99.90
24408;DHT22;12542;50.924;4.516;2022-10-16T03:41:12;14.20;99.90
24408;DHT22;12542;50.924;4.516;2022-10-16T03:43:37;14.30;99.90
24408;DHT22;12542;50.924;4.516;2022-10-16T03:46:03;14.20;99.90
24408;DHT22;12542;50.924;4.516;2022-10-16T03:48:29;14.20;99.90
24408;DHT22;12542;50.924;4.516;2022-10-16T03:50:55;14.20;99.90
24408;DHT22;12542;50.924;4.516;2022-10-16T03:53:21;14.20;99.90
24408;DHT22;12542;50.924;4.516;2022-10-16T03:55:47;14.30;99.90
24408;DHT22;12542;50.924;4.516;2022-10-16T03:58:13;14.30;99.90
24408;DHT22;12542;50.924;4.516;2022-10-16T04:00:43;14.40;99.90
24408;DHT22;12542;50.924;4.516;2022-10-16T04:03:10;14.40;99.90
24408;DHT22;12542;50.924;4.516;2022-10-16T04:05:36;14.30;99.90
24408;DHT22;12542;50.924;4.516;2022-10-16T04:08:02;14.30;99.90
24408;DHT22;12542;50.924;4.516;2022-10-16T04:10:28;14.20;99.90
24408;DHT22;12542;50.924;4.516;2022-10-16T04:12:55;14.30;99.90
24408;DHT22;12542;50.924;4.516;2022-10-16T04:15:23;14.20;99.90
24408;DHT22;12542;50.924;4.516;2022-10-16T04:17:50;14.30;99.90
24408;DHT22;12542;50.924;4.516;2022-10-16T04:20:16;14.20;99.90
24408;DHT22;12542;50.924;4.516;2022-10-16T04:22:41;14.20;99.90
24408;DHT22;12542;50.924;4.516;2022-10-16T04:25:07;14.20;99.90
24408;DHT22;12542;50.924;4.516;2022-10-16T04:27:33;14.10;99.90
24408;DHT22;12542;50.924;4.516;2022-10-16T04:29:59;14.20;99.90
24408;DHT22;12542;50.924;4.516;2022-10-16T04:32:26;14.10;99.90
24408;DHT22;12542;50.924;4.516;2022-10-16T04:34:52;14.00;99.90
24408;DHT22;12542;50.924;4.516;2022-10-16T04:37:18;14.10;99.90
24408;DHT22;12542;50.924;4.516;2022-10-16T04:39:44;14.00;99.90
24408;DHT22;12542;50.924;4.516;2022-10-16T04:42:10;14.10;99.90
24408;DHT22;12542;50.924;4.516;2022-10-16T04:44:37;14.20;99.90
24408;DHT22;12542;50.924;4.516;2022-10-16T04:47:05;14.20;99.90
24408;DHT22;12542;50.924;4.516;2022-10-16T04:49:30;14.20;99.90
24408;DHT22;12542;50.924;4.516;2022-10-16T04:51:56;14.30;99.90
24408;DHT22;12542;50.924;4.516;2022-10-16T04:54:21;14.30;99.90
24408;DHT22;12542;50.924;4.516;2022-10-16T04:56:48;14.20;99.90
24408;DHT22;12542;50.924;4.516;2022-10-16T04:59:16;14.20;99.90
24408;DHT22;12542;50.924;4.516;2022-10-16T05:01:42;14.20;99.90
24408;DHT22;12542;50.924;4.516;2022-10-16T05:04:11;14.20;99.90
24408;DHT22;12542;50.924;4.516;2022-10-16T05:06:38;14.20;99.90
24408;DHT22;12542;50.924;4.516;2022-10-16T05:09:08;14.10;99.90
24408;DHT22;12542;50.924;4.516;2022-10-16T05:11:34;14.00;99.90
24408;DHT22;12542;50.924;4.516;2022-10-16T05:14:00;14.00;99.90
24408;DHT22;12542;50.924;4.516;2022-10-16T05:16:29;14.00;99.90
24408;DHT22;12542;50.924;4.516;2022-10-16T05:18:55;13.90;99.90
24408;DHT22;12542;50.924;4.516;2022-10-16T05:21:21;13.80;99.90
24408;DHT22;12542;50.924;4.516;2022-10-16T05:23:47;13.80;99.90
24408;DHT22;12542;50.924;4.516;2022-10-16T05:26:13;13.80;99.90
24408;DHT22;12542;50.924;4.516;2022-10-16T05:28:39;13.80;99.90
24408;DHT22;12542;50.924;4.516;2022-10-16T05:31:05;13.90;99.90
24408;DHT22;12542;50.924;4.516;2022-10-16T05:33:32;14.00;99.90
24408;DHT22;12542;50.924;4.516;2022-10-16T05:36:04;14.00;99.90
24408;DHT22;12542;50.924;4.516;2022-10-16T05:38:31;13.90;99.90
24408;DHT22;12542;50.924;4.516;2022-10-16T05:40:57;13.90;99.90
24408;DHT22;12542;50.924;4.516;2022-10-16T05:43:23;13.90;99.90
24408;DHT22;12542;50.924;4.516;2022-10-16T05:46:00;13.80;99.90
24408;DHT22;12542;50.924;4.516;2022-10-16T05:48:26;13.80;99.90
24408;DHT22;12542;50.924;4.516;2022-10-16T05:51:02;13.80;99.90
24408;DHT22;12542;50.924;4.516;2022-10-16T05:53:30;13.80;99.90
24408;DHT22;12542;50.924;4.516;2022-10-16T05:55:57;13.80;99.90
24408;DHT22;12542;50.924;4.516;2022-10-16T05:58:24;13.90;99.90
24408;DHT22;12542;50.924;4.516;2022-10-16T06:00:55;13.90;99.90
24408;DHT22;12542;50.924;4.516;2022-10-16T06:03:21;13.80;99.90
24408;DHT22;12542;50.924;4.516;2022-10-16T06:05:48;13.80;99.90
24408;DHT22;12542;50.924;4.516;2022-10-16T06:08:14;13.80;99.90
24408;DHT22;12542;50.924;4.516;2022-10-16T06:10:39;13.80;99.90
24408;DHT22;12542;50.924;4.516;2022-10-16T06:13:05;13.80;99.90
24408;DHT22;12542;50.924;4.516;2022-10-16T06:15:31;13.90;99.90
24408;DHT22;12542;50.924;4.516;2022-10-16T06:17:56;13.90;99.90
24408;DHT22;12542;50.924;4.516;2022-10-16T06:20:22;13.90;99.90
24408;DHT22;12542;50.924;4.516;2022-10-16T06:22:47;14.00;99.90
24408;DHT22;12542;50.924;4.516;2022-10-16T06:25:13;14.00;99.90
24408;DHT22;12542;50.924;4.516;2022-10-16T06:27:40;14.10;99.90
24408;DHT22;12542;50.924;4.516;2022-10-16T06:30:07;14.10;99.90
24408;DHT22;12542;50.924;4.516;2022-10-16T06:32:34;14.10;99.90
24408;DHT22;12542;50.924;4.516;2022-10-16T06:35:00;14.00;99.90
24408;DHT22;12542;50.924;4.516;2022-10-16T06:37:26;14.00;99.90
24408;DHT22;12542;50.924;4.516;2022-10-16T06:39:52;14.00;99.90
24408;DHT22;12542;50.924;4.516;2022-10-16T06:42:18;14.10;99.90
24408;DHT22;12542;50.924;4.516;2022-10-16T06:44:44;14.10;99.90
24408;DHT22;12542;50.924;4.516;2022-10-16T06:47:11;14.20;99.90
24408;DHT22;12542;50.924;4.516;2022-10-16T06:49:37;14.30;99.90
24408;DHT22;12542;50.924;4.516;2022-10-16T06:52:03;14.40;99.90
24408;DHT22;12542;50.924;4.516;2022-10-16T06:54:29;14.60;99.90
24408;DHT22;12542;50.924;4.516;2022-10-16T06:56:55;14.70;99.90
24408;DHT22;12542;50.924;4.516;2022-10-16T06:59:22;14.90;99.90
24408;DHT22;12542;50.924;4.516;2022-10-16T07:01:48;15.00;99.90
24408;DHT22;12542;50.924;4.516;2022-10-16T07:04:14;15.10;99.90
24408;DHT22;12542;50.924;4.516;2022-10-16T07:06:40;15.10;99.90
24408;DHT22;12542;50.924;4.516;2022-10-16T07:09:08;15.30;99.90
24408;DHT22;12542;50.924;4.516;2022-10-16T07:11:37;15.70;99.90
24408;DHT22;12542;50.924;4.516;2022-10-16T07:14:04;16.00;99.90
24408;DHT22;12542;50.924;4.516;2022-10-16T07:16:32;16.70;99.90
24408;DHT22;12542;50.924;4.516;2022-10-16T07:19:00;17.10;99.90
24408;DHT22;12542;50.924;4.516;2022-10-16T07:21:29;17.20;99.90
24408;DHT22;12542;50.924;4.516;2022-10-16T07:24:00;18.00;99.90
24408;DHT22;12542;50.924;4.516;2022-10-16T07:26:30;19.10;99.90
24408;DHT22;12542;50.924;4.516;2022-10-16T07:28:57;20.00;99.90
24408;DHT22;12542;50.924;4.516;2022-10-16T07:31:24;21.60;99.90
24408;DHT22;12542;50.924;4.516;2022-10-16T07:33:53;23.40;99.90
24408;DHT22;12542;50.924;4.516;2022-10-16T07:36:20;25.10;99.90
24408;DHT22;12542;50.924;4.516;2022-10-16T07:38:46;26.90;98.50
24408;DHT22;12542;50.924;4.516;2022-10-16T07:41:18;27.70;96.50
24408;DHT22;12542;50.924;4.516;2022-10-16T07:43:48;29.10;93.20
24408;DHT22;12542;50.924;4.516;2022-10-16T07:46:14;29.30;91.50
24408;DHT22;12542;50.924;4.516;2022-10-16T07:48:40;29.00;92.10
24408;DHT22;12542;50.924;4.516;2022-10-16T07:51:07;28.70;91.70
24408;DHT22;12542;50.924;4.516;2022-10-16T07:53:33;29.00;92.00
24408;DHT22;12542;50.924;4.516;2022-10-16T07:56:00;30.00;89.80
24408;DHT22;12542;50.924;4.516;2022-10-16T07:58:27;30.70;88.40
24408;DHT22;12542;50.924;4.516;2022-10-16T08:00:56;30.50;86.00
24408;DHT22;12542;50.924;4.516;2022-10-16T08:03:23;30.70;85.10
24408;DHT22;12542;50.924;4.516;2022-10-16T08:05:49;31.10;84.70
24408;DHT22;12542;50.924;4.516;2022-10-16T08:08:18;31.60;82.20
24408;DHT22;12542;50.924;4.516;2022-10-16T08:10:44;31.30;81.60
24408;DHT22;12542;50.924;4.516;2022-10-16T08:13:11;31.60;81.20
24408;DHT22;12542;50.924;4.516;2022-10-16T08:15:38;32.10;78.40
24408;DHT22;12542;50.924;4.516;2022-10-16T08:18:05;31.50;80.60
24408;DHT22;12542;50.924;4.516;2022-10-16T08:20:33;31.30;80.20
24408;DHT22;12542;50.924;4.516;2022-10-16T08:23:00;30.70;81.30
24408;DHT22;12542;50.924;4.516;2022-10-16T08:25:26;29.90;81.00
24408;DHT22;12542;50.924;4.516;2022-10-16T08:27:52;29.60;84.70
24408;DHT22;12542;50.924;4.516;2022-10-16T08:30:19;29.20;85.80
24408;DHT22;12542;50.924;4.516;2022-10-16T08:32:45;29.50;85.50
24408;DHT22;12542;50.924;4.516;2022-10-16T08:35:12;29.10;85.50
24408;DHT22;12542;50.924;4.516;2022-10-16T08:37:38;29.30;86.20
24408;DHT22;12542;50.924;4.516;2022-10-16T08:40:15;29.70;85.50
24408;DHT22;12542;50.924;4.516;2022-10-16T08:43:04;29.70;83.40
24408;DHT22;12542;50.924;4.516;2022-10-16T08:45:38;29.40;85.40
24408;DHT22;12542;50.924;4.516;2022-10-16T08:48:20;29.80;85.90
24408;DHT22;12542;50.924;4.516;2022-10-16T08:50:51;29.90;84.00
24408;DHT22;12542;50.924;4.516;2022-10-16T08:53:29;29.70;84.90
24408;DHT22;12542;50.924;4.516;2022-10-16T08:55:56;29.70;84.30
24408;DHT22;12542;50.924;4.516;2022-10-16T08:58:28;29.60;84.30
24408;DHT22;12542;50.924;4.516;2022-10-16T09:00:57;29.40;83.80
24408;DHT22;12542;50.924;4.516;2022-10-16T09:09:38;28.50;86.50
24408;DHT22;12542;50.924;4.516;2022-10-16T09:12:37;28.70;87.40
24408;DHT22;12542;50.924;4.516;2022-10-16T09:18:27;28.00;89.50
24408;DHT22;12542;50.924;4.516;2022-10-16T09:21:16;28.20;88.30
24408;DHT22;12542;50.924;4.516;2022-10-16T09:23:44;28.00;89.30
24408;DHT22;12542;50.924;4.516;2022-10-16T09:26:12;28.00;89.50
24408;DHT22;12542;50.924;4.516;2022-10-16T09:28:41;27.70;90.00
24408;DHT22;12542;50.924;4.516;2022-10-16T09:31:17;27.60;90.60
24408;DHT22;12542;50.924;4.516;2022-10-16T09:33:45;27.60;90.30
24408;DHT22;12542;50.924;4.516;2022-10-16T09:36:13;27.30;90.80
24408;DHT22;12542;50.924;4.516;2022-10-16T09:38:39;27.50;90.70
24408;DHT22;12542;50.924;4.516;2022-10-16T09:41:19;27.10;91.10
24408;DHT22;12542;50.924;4.516;2022-10-16T09:43:52;27.10;91.70
24408;DHT22;12542;50.924;4.516;2022-10-16T09:46:24;27.00;91.50
24408;DHT22;12542;50.924;4.516;2022-10-16T09:48:53;26.90;92.00
24408;DHT22;12542;50.924;4.516;2022-10-16T09:54:15;26.80;92.00
24408;DHT22;12542;50.924;4.516;2022-10-16T09:56:42;26.70;91.70
24408;DHT22;12542;50.924;4.516;2022-10-16T10:01:53;26.30;92.20
24408;DHT22;12542;50.924;4.516;2022-10-16T10:04:21;26.30;92.50
24408;DHT22;12542;50.924;4.516;2022-10-16T10:06:49;26.30;92.30
24408;DHT22;12542;50.924;4.516;2022-10-16T10:12:01;26.10;92.90
24408;DHT22;12542;50.924;4.516;2022-10-16T10:14:37;25.90;92.90
24408;DHT22;12542;50.924;4.516;2022-10-16T10:19:53;26.00;92.70
24408;DHT22;12542;50.924;4.516;2022-10-16T10:22:29;26.10;92.30
24408;DHT22;12542;50.924;4.516;2022-10-16T10:25:18;26.40;92.10
24408;DHT22;12542;50.924;4.516;2022-10-16T10:33:20;26.40;92.30
24408;DHT22;12542;50.924;4.516;2022-10-16T10:44:21;25.50;93.30
24408;DHT22;12542;50.924;4.516;2022-10-16T10:46:57;25.40;93.80
24408;DHT22;12542;50.924;4.516;2022-10-16T10:49:50;25.50;93.60
24408;DHT22;12542;50.924;4.516;2022-10-16T10:52:41;25.70;93.40
24408;DHT22;12542;50.924;4.516;2022-10-16T11:00:53;25.60;93.50
24408;DHT22;12542;50.924;4.516;2022-10-16T11:06:45;25.60;92.70
24408;DHT22;12542;50.924;4.516;2022-10-16T11:09:18;25.50;93.00
24408;DHT22;12542;50.924;4.516;2022-10-16T11:11:54;25.50;92.90
24408;DHT22;12542;50.924;4.516;2022-10-16T11:14:35;25.50;93.50
24408;DHT22;12542;50.924;4.516;2022-10-16T11:17:10;25.60;93.10
24408;DHT22;12542;50.924;4.516;2022-10-16T11:20:11;25.40;93.40
24408;DHT22;12542;50.924;4.516;2022-10-16T11:22:44;25.30;93.40
24408;DHT22;12542;50.924;4.516;2022-10-16T11:25:33;25.50;93.60
24408;DHT22;12542;50.924;4.516;2022-10-16T11:30:30;25.10;94.10
24408;DHT22;12542;50.924;4.516;2022-10-16T11:36:00;25.60;93.50
24408;DHT22;12542;50.924;4.516;2022-10-16T11:55:53;24.40;92.80
24408;DHT22;12542;50.924;4.516;2022-10-16T11:58:56;24.10;93.80
24408;DHT22;12542;50.924;4.516;2022-10-16T12:04:14;23.40;94.00
24408;DHT22;12542;50.924;4.516;2022-10-16T12:06:57;23.20;93.80
24408;DHT22;12542;50.924;4.516;2022-10-16T12:09:30;23.20;95.50
24408;DHT22;12542;50.924;4.516;2022-10-16T12:11:57;23.40;96.00
24408;DHT22;12542;50.924;4.516;2022-10-16T12:16:57;23.50;96.00
24408;DHT22;12542;50.924;4.516;2022-10-16T12:19:26;23.70;96.00
24408;DHT22;12542;50.924;4.516;2022-10-16T12:21:56;23.60;95.00
24408;DHT22;12542;50.924;4.516;2022-10-16T12:24:35;23.40;96.00
24408;DHT22;12542;50.924;4.516;2022-10-16T12:27:04;23.30;95.30
24408;DHT22;12542;50.924;4.516;2022-10-16T12:29:39;23.20;96.90
24408;DHT22;12542;50.924;4.516;2022-10-16T12:32:31;23.20;96.50
24408;DHT22;12542;50.924;4.516;2022-10-16T12:35:00;22.80;96.20
24408;DHT22;12542;50.924;4.516;2022-10-16T12:37:33;21.80;98.90
24408;DHT22;12542;50.924;4.516;2022-10-16T12:39:59;21.60;99.20
24408;DHT22;12542;50.924;4.516;2022-10-16T12:42:35;21.50;99.70
24408;DHT22;12542;50.924;4.516;2022-10-16T12:45:28;21.20;99.90
24408;DHT22;12542;50.924;4.516;2022-10-16T12:47:58;20.70;99.90
24408;DHT22;12542;50.924;4.516;2022-10-16T12:52:53;20.30;99.90
24408;DHT22;12542;50.924;4.516;2022-10-16T12:55:20;20.20;99.90
24408;DHT22;12542;50.924;4.516;2022-10-16T12:58:06;20.10;99.90
24408;DHT22;12542;50.924;4.516;2022-10-16T13:12:25;21.10;99.90
24408;DHT22;12542;50.924;4.516;2022-10-16T13:15:23;21.00;99.90
24408;DHT22;12542;50.924;4.516;2022-10-16T13:28:36;20.20;99.90
24408;DHT22;12542;50.924;4.516;2022-10-16T13:31:03;20.30;99.90
24408;DHT22;12542;50.924;4.516;2022-10-16T13:33:33;20.20;99.90
24408;DHT22;12542;50.924;4.516;2022-10-16T13:36:01;20.20;99.90
24408;DHT22;12542;50.924;4.516;2022-10-16T13:38:35;20.30;99.90
24408;DHT22;12542;50.924;4.516;2022-10-16T13:41:17;20.40;99.90
24408;DHT22;12542;50.924;4.516;2022-10-16T13:43:49;20.70;99.90
24408;DHT22;12542;50.924;4.516;2022-10-16T13:46:19;20.90;99.90
24408;DHT22;12542;50.924;4.516;2022-10-16T13:48:56;21.00;99.90
24408;DHT22;12542;50.924;4.516;2022-10-16T13:51:22;21.00;99.90
24408;DHT22;12542;50.924;4.516;2022-10-16T13:53:50;20.90;99.90
24408;DHT22;12542;50.924;4.516;2022-10-16T13:56:19;20.90;99.90
24408;DHT22;12542;50.924;4.516;2022-10-16T13:58:45;20.70;99.90
24408;DHT22;12542;50.924;4.516;2022-10-16T14:01:22;20.60;99.90
24408;DHT22;12542;50.924;4.516;2022-10-16T14:03:49;20.60;99.90
24408;DHT22;12542;50.924;4.516;2022-10-16T14:06:19;20.50;99.90
24408;DHT22;12542;50.924;4.516;2022-10-16T14:08:57;20.50;99.90
24408;DHT22;12542;50.924;4.516;2022-10-16T14:11:24;20.30;99.90
24408;DHT22;12542;50.924;4.516;2022-10-16T14:13:51;20.40;99.90
24408;DHT22;12542;50.924;4.516;2022-10-16T14:16:26;20.50;99.90
24408;DHT22;12542;50.924;4.516;2022-10-16T14:19:00;20.50;99.90
24408;DHT22;12542;50.924;4.516;2022-10-16T14:21:27;20.50;99.90
24408;DHT22;12542;50.924;4.516;2022-10-16T14:23:53;20.50;99.90
24408;DHT22;12542;50.924;4.516;2022-10-16T14:26:22;20.40;99.90
24408;DHT22;12542;50.924;4.516;2022-10-16T14:29:01;20.20;99.90
24408;DHT22;12542;50.924;4.516;2022-10-16T14:31:31;20.50;99.90
24408;DHT22;12542;50.924;4.516;2022-10-16T14:33:58;20.50;99.90
24408;DHT22;12542;50.924;4.516;2022-10-16T14:36:25;20.50;99.90
24408;DHT22;12542;50.924;4.516;2022-10-16T14:41:23;20.30;99.90
24408;DHT22;12542;50.924;4.516;2022-10-16T14:43:58;20.30;99.90
24408;DHT22;12542;50.924;4.516;2022-10-16T14:46:37;20.30;99.90
24408;DHT22;12542;50.924;4.516;2022-10-16T14:49:19;20.50;99.90
24408;DHT22;12542;50.924;4.516;2022-10-16T14:51:46;20.60;99.90
24408;DHT22;12542;50.924;4.516;2022-10-16T14:54:14;20.60;99.90
24408;DHT22;12542;50.924;4.516;2022-10-16T14:56:55;20.60;99.90
24408;DHT22;12542;50.924;4.516;2022-10-16T14:59:35;20.50;99.90
24408;DHT22;12542;50.924;4.516;2022-10-16T15:04:46;20.40;99.90
24408;DHT22;12542;50.924;4.516;2022-10-16T15:07:12;20.40;99.90
24408;DHT22;12542;50.924;4.516;2022-10-16T15:09:37;20.50;99.90
24408;DHT22;12542;50.924;4.516;2022-10-16T15:12:04;20.40;99.90
24408;DHT22;12542;50.924;4.516;2022-10-16T15:14:30;20.50;99.90
24408;DHT22;12542;50.924;4.516;2022-10-16T15:16:55;20.40;99.90
24408;DHT22;12542;50.924;4.516;2022-10-16T15:19:21;20.40;99.90
24408;DHT22;12542;50.924;4.516;2022-10-16T15:21:47;20.40;99.90
24408;DHT22;12542;50.924;4.516;2022-10-16T15:24:14;20.60;99.90
24408;DHT22;12542;50.924;4.516;2022-10-16T15:26:40;20.40;99.90
24408;DHT22;12542;50.924;4.516;2022-10-16T15:29:06;20.40;99.90
24408;DHT22;12542;50.924;4.516;2022-10-16T15:31:32;20.30;99.90
24408;DHT22;12542;50.924;4.516;2022-10-16T15:33:58;20.20;99.90
24408;DHT22;12542;50.924;4.516;2022-10-16T15:36:30;20.10;99.90
24408;DHT22;12542;50.924;4.516;2022-10-16T15:38:57;20.20;99.90
24408;DHT22;12542;50.924;4.516;2022-10-16T15:41:23;20.30;99.90
24408;DHT22;12542;50.924;4.516;2022-10-16T15:43:50;20.30;99.90
24408;DHT22;12542;50.924;4.516;2022-10-16T15:46:19;20.30;99.90
24408;DHT22;12542;50.924;4.516;2022-10-16T15:48:44;20.40;99.90
24408;DHT22;12542;50.924;4.516;2022-10-16T15:51:11;20.30;99.90
24408;DHT22;12542;50.924;4.516;2022-10-16T15:53:37;20.20;99.90
24408;DHT22;12542;50.924;4.516;2022-10-16T15:56:04;20.10;99.90
24408;DHT22;12542;50.924;4.516;2022-10-16T15:58:32;19.90;99.90
24408;DHT22;12542;50.924;4.516;2022-10-16T16:00:59;19.90;99.90
24408;DHT22;12542;50.924;4.516;2022-10-16T16:03:29;20.00;99.90
24408;DHT22;12542;50.924;4.516;2022-10-16T16:05:56;19.90;99.90
24408;DHT22;12542;50.924;4.516;2022-10-16T16:08:22;19.80;99.90
24408;DHT22;12542;50.924;4.516;2022-10-16T16:11:02;19.80;99.90
24408;DHT22;12542;50.924;4.516;2022-10-16T16:13:28;19.80;99.90
24408;DHT22;12542;50.924;4.516;2022-10-16T16:15:54;19.80;99.90
24408;DHT22;12542;50.924;4.516;2022-10-16T16:18:20;19.80;99.90
24408;DHT22;12542;50.924;4.516;2022-10-16T16:20:46;19.80;99.90
24408;DHT22;12542;50.924;4.516;2022-10-16T16:23:11;19.70;99.90
24408;DHT22;12542;50.924;4.516;2022-10-16T16:25:37;19.50;99.90
24408;DHT22;12542;50.924;4.516;2022-10-16T16:28:03;19.60;99.90
24408;DHT22;12542;50.924;4.516;2022-10-16T16:30:29;19.60;99.90
24408;DHT22;12542;50.924;4.516;2022-10-16T16:32:54;19.50;99.90
24408;DHT22;12542;50.924;4.516;2022-10-16T16:35:20;19.50;99.90
24408;DHT22;12542;50.924;4.516;2022-10-16T16:37:47;19.40;99.90
24408;DHT22;12542;50.924;4.516;2022-10-16T16:40:13;19.40;99.90
24408;DHT22;12542;50.924;4.516;2022-10-16T16:42:39;19.30;99.90
24408;DHT22;12542;50.924;4.516;2022-10-16T16:45:06;19.30;99.90
24408;DHT22;12542;50.924;4.516;2022-10-16T16:47:31;19.10;99.90
24408;DHT22;12542;50.924;4.516;2022-10-16T16:49:57;19.10;99.90
24408;DHT22;12542;50.924;4.516;2022-10-16T16:52:23;19.20;99.90
24408;DHT22;12542;50.924;4.516;2022-10-16T16:54:51;19.00;99.90
24408;DHT22;12542;50.924;4.516;2022-10-16T16:57:19;19.10;99.90
24408;DHT22;12542;50.924;4.516;2022-10-16T16:59:45;19.00;99.90
24408;DHT22;12542;50.924;4.516;2022-10-16T17:02:11;19.00;99.90
24408;DHT22;12542;50.924;4.516;2022-10-16T17:04:37;19.10;99.90
24408;DHT22;12542;50.924;4.516;2022-10-16T17:07:03;19.00;99.90
24408;DHT22;12542;50.924;4.516;2022-10-16T17:09:32;18.90;99.90
24408;DHT22;12542;50.924;4.516;2022-10-16T17:11:57;19.00;99.90
24408;DHT22;12542;50.924;4.516;2022-10-16T17:14:23;18.90;99.90
24408;DHT22;12542;50.924;4.516;2022-10-16T17:16:49;18.90;99.90
24408;DHT22;12542;50.924;4.516;2022-10-16T17:19:16;18.70;99.90
24408;DHT22;12542;50.924;4.516;2022-10-16T17:21:42;18.80;99.90
24408;DHT22;12542;50.924;4.516;2022-10-16T17:24:08;18.70;99.90
24408;DHT22;12542;50.924;4.516;2022-10-16T17:26:35;18.70;99.90
24408;DHT22;12542;50.924;4.516;2022-10-16T17:29:03;18.80;99.90
24408;DHT22;12542;50.924;4.516;2022-10-16T17:31:33;18.70;99.90
24408;DHT22;12542;50.924;4.516;2022-10-16T17:34:00;18.40;99.90
24408;DHT22;12542;50.924;4.516;2022-10-16T17:36:27;18.40;99.90
24408;DHT22;12542;50.924;4.516;2022-10-16T17:38:58;18.50;99.90
24408;DHT22;12542;50.924;4.516;2022-10-16T17:41:26;18.30;99.90
24408;DHT22;12542;50.924;4.516;2022-10-16T17:43:54;18.20;99.90